Wolgastern — CQLH — position and weather

sailwx.info

Track history (hours):
 
Tides and Currents Weather Stations Pressure Air Temp Water Temp Dewpoint Dewpoint Depression Visibility Wind Speed Wind Dir Waves Ship Positions

Wolgastern

Last reported at 2015-May-02 16:24 UTC. Time now 2015-May-04 03:59 UTC.
Position N 57°32' E 004°06'.

Length 162 m; draft 6.8 m.

Type: Ship. MMSI: 255804950.

Date/timePositionNaut miles runAvg speedWind from/ knotsBaromVisibWave heightAir tempDewpointWater temp
2015-May-02 16:24N 57°32' E 004°06'28411.4
2015-May-01 15:33N 52°48' E 003°56'1312.9
2015-May-01 14:33N 52°37' E 004°05'1211.7
2015-May-01 13:34N 52°30' E 004°21'9 9.4
2015-May-01 12:34N 52°28' E 004°36'1 1.5
2015-May-01 11:33N 52°28' E 004°39'3 3.4
2015-May-01 10:33N 52°26' E 004°44'1 1.4
2015-May-01 09:34N 52°25' E 004°45'0 0.0
2015-May-01 08:34N 52°25' E 004°45'0 0.0
2015-May-01 07:34N 52°25' E 004°45'0 0.0
2015-May-01 06:34N 52°25' E 004°45'0 0.0
2015-May-01 05:34N 52°25' E 004°45'0 0.0
2015-May-01 04:33N 52°25' E 004°45'0 0.0
2015-May-01 03:34N 52°25' E 004°45'0 0.0
2015-May-01 02:34N 52°25' E 004°45'0 0.0
2015-May-01 01:34N 52°25' E 004°45'0 0.0
2015-May-01 00:33N 52°25' E 004°45'0 0.0
2015-Apr-30 23:33N 52°25' E 004°45'0 0.0
2015-Apr-30 03:34N 52°25' E 004°45'0 0.4
2015-Apr-30 02:33N 52°25' E 004°45'0 0.0
2015-Apr-30 01:33N 52°25' E 004°45'0 0.0
2015-Apr-30 00:33N 52°25' E 004°45'0 0.0
2015-Apr-29 23:34N 52°25' E 004°45'0 0.0
2015-Apr-29 22:34N 52°25' E 004°45'0 0.0
2015-Apr-29 21:33N 52°25' E 004°45'0 0.0
2015-Apr-29 20:33N 52°25' E 004°45'0 0.0
2015-Apr-29 19:34N 52°25' E 004°45'0 0.0
2015-Apr-28 04:33N 52°25' E 004°45'0 0.2
2015-Apr-28 03:33N 52°25' E 004°45'5 5.4
2015-Apr-28 02:34N 52°28' E 004°37'1 1.4
2015-Apr-28 01:34N 52°28' E 004°35'9 8.8
2015-Apr-28 00:33N 52°28' E 004°21'6 6.4
2015-Apr-27 23:33N 52°28' E 004°10'2 1.8
2015-Apr-27 22:33N 52°27' E 004°07'0 0.0
2015-Apr-27 21:33N 52°27' E 004°07'0 0.0
2015-Apr-27 20:32N 52°27' E 004°07'0 0.0
2015-Apr-27 19:30N 52°27' E 004°07'0 0.0
2015-Apr-27 18:33N 52°27' E 004°07'0 0.0
2015-Apr-27 17:31N 52°27' E 004°07'0 0.0
2015-Apr-27 16:28N 52°27' E 004°07'0 0.0
2015-Apr-27 15:33N 52°27' E 004°07'0 0.0
2015-Apr-27 14:33N 52°27' E 004°07'0 0.0
2015-Apr-27 13:33N 52°27' E 004°07'0 0.0
2015-Apr-27 12:33N 52°27' E 004°07'0 0.0
2015-Apr-27 11:33N 52°27' E 004°07'0 0.1
2015-Apr-27 10:33N 52°27' E 004°07'0 0.0
2015-Apr-27 09:33N 52°27' E 004°07'0 0.0
2015-Apr-27 08:33N 52°27' E 004°07'0 0.0
2015-Apr-27 07:30N 52°27' E 004°07'0 0.0
2015-Apr-27 06:16N 52°27' E 004°07'0 0.0
2015-Apr-27 05:31N 52°27' E 004°07'0 0.0
2015-Apr-27 04:33N 52°27' E 004°07'0 0.0
2015-Apr-27 03:30N 52°27' E 004°07'0 0.0
2015-Apr-27 02:33N 52°27' E 004°07'0 0.0
2015-Apr-27 01:33N 52°27' E 004°07'0 0.0
2015-Apr-27 00:33N 52°27' E 004°07'0 0.0
2015-Apr-26 23:33N 52°27' E 004°07'0 0.0
2015-Apr-26 22:33N 52°27' E 004°07'0 0.0
2015-Apr-26 21:33N 52°27' E 004°07'0 0.0
2015-Apr-26 20:33N 52°27' E 004°07'0 0.1
2015-Apr-26 19:33N 52°27' E 004°07'0 0.0
2015-Apr-26 18:32N 52°27' E 004°07'0 0.0
2015-Apr-26 17:26N 52°27' E 004°07'0 0.0
2015-Apr-26 16:33N 52°27' E 004°07'0 0.0
2015-Apr-26 15:33N 52°27' E 004°07'0 0.0
2015-Apr-26 14:33N 52°27' E 004°07'0 0.0
2015-Apr-26 13:33N 52°27' E 004°07'0 0.0
2015-Apr-26 12:25N 52°27' E 004°07'0 0.0
2015-Apr-26 11:26N 52°27' E 004°07'0 0.1
2015-Apr-26 10:33N 52°27' E 004°07'0 0.0
2015-Apr-26 09:33N 52°27' E 004°07'0 0.0
2015-Apr-26 08:33N 52°27' E 004°07'0 0.1
2015-Apr-26 07:33N 52°27' E 004°07'0 0.1
2015-Apr-26 06:33N 52°27' E 004°07'0 0.1
2015-Apr-26 05:33N 52°27' E 004°07'0 0.0
2015-Apr-26 04:33N 52°27' E 004°07'0 0.0
2015-Apr-26 03:31N 52°27' E 004°07'0 0.0
2015-Apr-26 02:33N 52°27' E 004°07'0 0.0
2015-Apr-26 01:33N 52°27' E 004°07'0 0.1
2015-Apr-26 00:33N 52°27' E 004°07'0 0.0
2015-Apr-25 23:33N 52°27' E 004°07'0 0.0
2015-Apr-25 22:33N 52°27' E 004°07'0 0.0
2015-Apr-25 21:33N 52°27' E 004°07'0 0.0
2015-Apr-25 20:33N 52°27' E 004°07'0 0.0
2015-Apr-25 19:33N 52°27' E 004°07'0 0.0
2015-Apr-25 18:33N 52°27' E 004°07'0 0.0
2015-Apr-25 17:33N 52°27' E 004°07'0 0.0
2015-Apr-25 16:33N 52°27' E 004°07'0 0.0
2015-Apr-25 15:33N 52°27' E 004°07'0 0.0
2015-Apr-25 14:33N 52°27' E 004°07'0 0.0
2015-Apr-25 13:33N 52°27' E 004°07'0 0.2
2015-Apr-25 12:33N 52°27' E 004°07'1010.0
2015-Apr-25 11:33N 52°26' E 003°51'7712.9
2015-Apr-25 05:33N 51°33' E 002°20'1413.9
2015-Apr-25 04:34N 51°21' E 002°09'1313.4
2015-Apr-25 03:33N 51°11' E 001°56'1514.5
2015-Apr-25 02:33N 51°01' E 001°39'13911.2
2015-Apr-24 14:12N 50°02' W 001°39'1314.0
2015-Apr-24 13:14N 49°59' W 001°60'  
Track history (hours):
 
Tides and Currents Weather Stations Pressure Air Temp Water Temp Dewpoint Dewpoint Depression Visibility Wind Speed Wind Dir Waves Ship Positions

Wolgastern

Last reported at 2015-May-02 16:24 UTC. Time now 2015-May-04 03:59 UTC.
Position N 57°32' E 004°06'.

Length 162 m; draft 6.8 m.

Type: Ship. MMSI: 255804950.

Date/timePositionNaut miles runAvg speedWind from/ knotsBaromVisibWave heightAir tempDewpointWater temp
2015-May-02 16:24N 57°32' E 004°06'28411.4
2015-May-01 15:33N 52°48' E 003°56'1312.9
2015-May-01 14:33N 52°37' E 004°05'1211.7
2015-May-01 13:34N 52°30' E 004°21'9 9.4
2015-May-01 12:34N 52°28' E 004°36'1 1.5
2015-May-01 11:33N 52°28' E 004°39'3 3.4
2015-May-01 10:33N 52°26' E 004°44'1 1.4
2015-May-01 09:34N 52°25' E 004°45'0 0.0
2015-May-01 08:34N 52°25' E 004°45'0 0.0
2015-May-01 07:34N 52°25' E 004°45'0 0.0
2015-May-01 06:34N 52°25' E 004°45'0 0.0
2015-May-01 05:34N 52°25' E 004°45'0 0.0
2015-May-01 04:33N 52°25' E 004°45'0 0.0
2015-May-01 03:34N 52°25' E 004°45'0 0.0
2015-May-01 02:34N 52°25' E 004°45'0 0.0
2015-May-01 01:34N 52°25' E 004°45'0 0.0
2015-May-01 00:33N 52°25' E 004°45'0 0.0
2015-Apr-30 23:33N 52°25' E 004°45'0 0.0
2015-Apr-30 03:34N 52°25' E 004°45'0 0.4
2015-Apr-30 02:33N 52°25' E 004°45'0 0.0
2015-Apr-30 01:33N 52°25' E 004°45'0 0.0
2015-Apr-30 00:33N 52°25' E 004°45'0 0.0
2015-Apr-29 23:34N 52°25' E 004°45'0 0.0
2015-Apr-29 22:34N 52°25' E 004°45'0 0.0
2015-Apr-29 21:33N 52°25' E 004°45'0 0.0
2015-Apr-29 20:33N 52°25' E 004°45'0 0.0
2015-Apr-29 19:34N 52°25' E 004°45'0 0.0
2015-Apr-28 04:33N 52°25' E 004°45'0 0.2
2015-Apr-28 03:33N 52°25' E 004°45'5 5.4
2015-Apr-28 02:34N 52°28' E 004°37'1 1.4
2015-Apr-28 01:34N 52°28' E 004°35'9 8.8
2015-Apr-28 00:33N 52°28' E 004°21'6 6.4
2015-Apr-27 23:33N 52°28' E 004°10'2 1.8
2015-Apr-27 22:33N 52°27' E 004°07'0 0.0
2015-Apr-27 21:33N 52°27' E 004°07'0 0.0
2015-Apr-27 20:32N 52°27' E 004°07'0 0.0
2015-Apr-27 19:30N 52°27' E 004°07'0 0.0
2015-Apr-27 18:33N 52°27' E 004°07'0 0.0
2015-Apr-27 17:31N 52°27' E 004°07'0 0.0
2015-Apr-27 16:28N 52°27' E 004°07'0 0.0
2015-Apr-27 15:33N 52°27' E 004°07'0 0.0
2015-Apr-27 14:33N 52°27' E 004°07'0 0.0
2015-Apr-27 13:33N 52°27' E 004°07'0 0.0
2015-Apr-27 12:33N 52°27' E 004°07'0 0.0
2015-Apr-27 11:33N 52°27' E 004°07'0 0.1
2015-Apr-27 10:33N 52°27' E 004°07'0 0.0
2015-Apr-27 09:33N 52°27' E 004°07'0 0.0
2015-Apr-27 08:33N 52°27' E 004°07'0 0.0
2015-Apr-27 07:30N 52°27' E 004°07'0 0.0
2015-Apr-27 06:16N 52°27' E 004°07'0 0.0
2015-Apr-27 05:31N 52°27' E 004°07'0 0.0
2015-Apr-27 04:33N 52°27' E 004°07'0 0.0
2015-Apr-27 03:30N 52°27' E 004°07'0 0.0
2015-Apr-27 02:33N 52°27' E 004°07'0 0.0
2015-Apr-27 01:33N 52°27' E 004°07'0 0.0
2015-Apr-27 00:33N 52°27' E 004°07'0 0.0
2015-Apr-26 23:33N 52°27' E 004°07'0 0.0
2015-Apr-26 22:33N 52°27' E 004°07'0 0.0
2015-Apr-26 21:33N 52°27' E 004°07'0 0.0
2015-Apr-26 20:33N 52°27' E 004°07'0 0.1
2015-Apr-26 19:33N 52°27' E 004°07'0 0.0
2015-Apr-26 18:32N 52°27' E 004°07'0 0.0
2015-Apr-26 17:26N 52°27' E 004°07'0 0.0
2015-Apr-26 16:33N 52°27' E 004°07'0 0.0
2015-Apr-26 15:33N 52°27' E 004°07'0 0.0
2015-Apr-26 14:33N 52°27' E 004°07'0 0.0
2015-Apr-26 13:33N 52°27' E 004°07'0 0.0
2015-Apr-26 12:25N 52°27' E 004°07'0 0.0
2015-Apr-26 11:26N 52°27' E 004°07'0 0.1
2015-Apr-26 10:33N 52°27' E 004°07'0 0.0
2015-Apr-26 09:33N 52°27' E 004°07'0 0.0
2015-Apr-26 08:33N 52°27' E 004°07'0 0.1
2015-Apr-26 07:33N 52°27' E 004°07'0 0.1
2015-Apr-26 06:33N 52°27' E 004°07'0 0.1
2015-Apr-26 05:33N 52°27' E 004°07'0 0.0
2015-Apr-26 04:33N 52°27' E 004°07'0 0.0
2015-Apr-26 03:31N 52°27' E 004°07'0 0.0
2015-Apr-26 02:33N 52°27' E 004°07'0 0.0
2015-Apr-26 01:33N 52°27' E 004°07'0 0.1
2015-Apr-26 00:33N 52°27' E 004°07'0 0.0
2015-Apr-25 23:33N 52°27' E 004°07'0 0.0
2015-Apr-25 22:33N 52°27' E 004°07'0 0.0
2015-Apr-25 21:33N 52°27' E 004°07'0 0.0
2015-Apr-25 20:33N 52°27' E 004°07'0 0.0
2015-Apr-25 19:33N 52°27' E 004°07'0 0.0
2015-Apr-25 18:33N 52°27' E 004°07'0 0.0
2015-Apr-25 17:33N 52°27' E 004°07'0 0.0
2015-Apr-25 16:33N 52°27' E 004°07'0 0.0
2015-Apr-25 15:33N 52°27' E 004°07'0 0.0
2015-Apr-25 14:33N 52°27' E 004°07'0 0.0
2015-Apr-25 13:33N 52°27' E 004°07'0 0.2
2015-Apr-25 12:33N 52°27' E 004°07'1010.0
2015-Apr-25 11:33N 52°26' E 003°51'7712.9
2015-Apr-25 05:33N 51°33' E 002°20'1413.9
2015-Apr-25 04:34N 51°21' E 002°09'1313.4
2015-Apr-25 03:33N 51°11' E 001°56'1514.5
2015-Apr-25 02:33N 51°01' E 001°39'13911.2
2015-Apr-24 14:12N 50°02' W 001°39'1314.0
2015-Apr-24 13:14N 49°59' W 001°60'  

Dump ship's entire track history